Aviation Digital Data Service (ADDS)

Output produced by METARs form (0944 UTC 23 July 2019)
found at http://www.aviationweather.gov/metar/data/
 
Forecast for: TNCA (QUEEN BEATRIX , AW)
Text: TAF TNCA 230515Z 2306/2406 09020KT 9999 SCT018
Forecast period: 0600 UTC 23 July 2019 to 0600 UTC 24 July 2019
Forecast type: FROM: standard forecast or significant change
Winds: from the E (90 degrees) at 23 MPH (20 knots; 10.3 m/s)
Visibility: 6 or more miles 10+ km)
Ceiling: at least 12,000 feet AGL
Clouds: scattered clouds at 1800 feet AGL
Weather: no significant weather forecast for this period
Text: PROB30
Forecast period: 0800 to 1400 UTC 23 July 2019
Forecast type: TEMPORARY: The following changes expected for less than half the time period
Visibility: missing
Ceiling: 1500 feet AGL
Clouds: broken clouds at 1500 feet AGL
Weather: no significant weather forecast for this period